Time;durP1;ratioP1;P1;durP2;ratioP2;P2;SDS_P1;SDS_P2;PMS_P1;PMS_P2;Temp;Humidity;BMP_temperature;BMP_pressure;BME280_temperature;BME280_humidity;BME280_pressure;Samples;Min_cycle;Max_cycle;Signal;HPM_P1;HPM_P2
2022/04/20 00:01:10;;;;;;;12.43;2.97;;;9.10;99.90;;;;;;6304813;22;19999;-93
2022/04/20 00:03:38;;;;;;;9.77;3.30;;;9.10;99.90;;;;;;6303992;22;20007;-92
2022/04/20 00:06:04;;;;;;;10.55;2.90;;;9.10;99.90;;;;;;6276665;22;20016;-93
2022/04/20 00:08:30;;;;;;;5.30;2.95;;;9.10;99.90;;;;;;6303893;22;20001;-94
2022/04/20 00:10:56;;;;;;;9.48;2.90;;;;;;;;;;6276242;22;20007;-93
2022/04/20 00:13:24;;;;;;;7.53;2.60;;;9.00;99.90;;;;;;6303773;22;20053;-93
2022/04/20 00:15:50;;;;;;;6.43;2.83;;;9.00;99.90;;;;;;6275966;22;20021;-92
2022/04/20 00:18:16;;;;;;;8.30;3.38;;;9.00;99.90;;;;;;6303844;22;20027;-90
2022/04/20 00:20:41;;;;;;;6.88;2.55;;;9.00;99.90;;;;;;6304706;22;20006;-93
2022/04/20 00:23:07;;;;;;;10.13;3.15;;;9.00;99.90;;;;;;6303844;22;20006;-93
2022/04/20 00:25:33;;;;;;;8.75;3.00;;;9.00;99.90;;;;;;6303348;22;20015;-93
2022/04/20 00:27:59;;;;;;;6.57;2.80;;;9.00;99.90;;;;;;6303351;22;20431;-92
2022/04/20 00:30:24;;;;;;;6.63;2.78;;;9.00;99.90;;;;;;6303476;22;20003;-93
2022/04/20 00:32:50;;;;;;;9.55;3.40;;;9.00;99.90;;;;;;6303688;22;20052;-92
2022/04/20 00:35:16;;;;;;;6.72;3.05;;;8.90;99.90;;;;;;6304516;22;20011;-89
2022/04/20 00:37:42;;;;;;;6.65;3.40;;;8.90;99.90;;;;;;6276765;22;20466;-93
2022/04/20 00:40:09;;;;;;;7.00;3.17;;;8.80;99.90;;;;;;6303351;22;20422;-93
2022/04/20 00:42:38;;;;;;;7.85;2.95;;;8.80;99.90;;;;;;6303294;22;20030;-93
2022/04/20 00:45:05;;;;;;;6.57;2.80;;;8.90;99.90;;;;;;6276014;22;20011;-93
2022/04/20 00:47:32;;;;;;;7.65;2.97;;;8.90;99.90;;;;;;6303284;22;20023;-94
2022/04/20 00:49:59;;;;;;;7.50;3.22;;;8.80;99.90;;;;;;6303407;22;20006;-93
2022/04/20 00:52:24;;;;;;;6.65;3.20;;;8.80;99.90;;;;;;6303222;22;19999;-92
2022/04/20 00:54:50;;;;;;;8.50;3.25;;;8.80;99.90;;;;;;6303530;22;20025;-93
2022/04/20 00:57:16;;;;;;;7.78;3.25;;;8.70;99.90;;;;;;6304050;22;20003;-93
2022/04/20 00:59:43;;;;;;;11.02;3.63;;;8.70;99.90;;;;;;6303262;22;20027;-93
2022/04/20 01:02:09;;;;;;;6.72;3.10;;;;;;;;;;6305603;22;19996;-93
2022/04/20 01:04:35;;;;;;;7.97;3.00;;;8.70;99.90;;;;;;6303366;22;20330;-92
2022/04/20 01:07:11;;;;;;;7.72;3.42;;;8.70;99.90;;;;;;6275907;22;20007;-93
2022/04/20 01:09:37;;;;;;;4.78;2.80;;;8.70;99.90;;;;;;6276039;22;20003;-93
2022/04/20 01:12:03;;;;;;;6.70;2.70;;;8.70;99.90;;;;;;6275817;22;20086;-92
2022/04/20 01:14:29;;;;;;;5.75;2.92;;;8.60;99.90;;;;;;6303531;22;20003;-92
2022/04/20 01:16:54;;;;;;;7.05;2.80;;;8.50;99.90;;;;;;6303228;22;20012;-93
2022/04/20 01:19:21;;;;;;;3.80;3.00;;;8.50;99.90;;;;;;6276163;22;20052;-92
2022/04/20 01:21:46;;;;;;;8.27;3.28;;;8.40;99.90;;;;;;6306201;22;20352;-93
2022/04/20 01:24:12;;;;;;;7.15;3.05;;;8.30;99.90;;;;;;6305315;22;20006;-92
2022/04/20 01:26:39;;;;;;;6.45;3.42;;;8.30;99.90;;;;;;6305248;22;20006;-94
2022/04/20 01:29:07;;;;;;;9.65;3.53;;;8.40;99.90;;;;;;6278215;22;20447;-92
2022/04/20 01:31:33;;;;;;;11.25;3.67;;;8.30;99.90;;;;;;6305557;22;20007;-92
2022/04/20 01:33:58;;;;;;;6.45;3.30;;;8.30;99.90;;;;;;6278128;22;20000;-94
2022/04/20 01:36:24;;;;;;;5.72;3.45;;;8.30;99.90;;;;;;6305075;22;20128;-92
2022/04/20 01:38:50;;;;;;;9.25;3.17;;;8.20;99.90;;;;;;6305267;22;20041;-89
2022/04/20 01:41:15;;;;;;;8.90;3.58;;;8.10;99.90;;;;;;6278552;22;20007;-92
2022/04/20 01:43:42;;;;;;;6.20;3.40;;;8.10;99.90;;;;;;6305319;22;19996;-94
2022/04/20 01:46:07;;;;;;;6.95;3.78;;;8.00;99.90;;;;;;6305590;22;20011;-93
2022/04/20 01:48:33;;;;;;;10.50;3.83;;;8.00;99.90;;;;;;6277929;22;20023;-93
2022/04/20 01:53:43;;;;;;;7.43;3.85;;;7.90;99.90;;;;;;6304966;22;20478;-93
2022/04/20 01:56:09;;;;;;;10.07;3.72;;;7.80;99.90;;;;;;6278815;22;20003;-93
2022/04/20 01:58:35;;;;;;;7.40;3.88;;;7.80;99.90;;;;;;6277901;22;20173;-92
2022/04/20 02:02:34;;;;;;;6.38;3.38;;;7.80;99.90;;;;;;6277832;22;20214;-94
2022/04/20 02:03:47;;;;;;;8.82;3.67;;;7.90;99.90;;;;;;6305610;22;20003;-93
2022/04/20 02:06:14;;;;;;;11.73;4.00;;;7.90;99.90;;;;;;6277699;22;20011;-92
2022/04/20 02:08:40;;;;;;;8.55;3.20;;;8.00;99.90;;;;;;6305090;22;20074;-94
2022/04/20 02:11:06;;;;;;;6.05;3.63;;;8.00;99.90;;;;;;6277924;22;20348;-93
2022/04/20 02:13:32;;;;;;;8.00;3.53;;;8.10;99.90;;;;;;6278019;22;20030;-94
2022/04/20 02:15:58;;;;;;;11.68;3.83;;;8.10;99.90;;;;;;6304790;22;20010;-94
2022/04/20 02:18:24;;;;;;;8.30;3.92;;;8.20;99.90;;;;;;6304697;22;20003;-93
2022/04/20 02:20:52;;;;;;;8.23;3.80;;;8.20;99.90;;;;;;6305727;22;20006;-91
2022/04/20 02:23:18;;;;;;;8.82;4.35;;;8.10;99.90;;;;;;6305868;22;20014;-93
2022/04/20 02:25:44;;;;;;;9.40;3.90;;;8.10;99.90;;;;;;6306112;22;20039;-93
2022/04/20 02:28:10;;;;;;;8.30;3.95;;;8.10;99.90;;;;;;6307328;22;19995;-95
2022/04/20 02:30:36;;;;;;;8.15;3.95;;;8.00;99.90;;;;;;6311660;22;19996;-94
2022/04/20 02:33:01;;;;;;;7.88;3.92;;;8.00;99.90;;;;;;6304610;22;20109;-93
2022/04/20 02:35:27;;;;;;;6.13;3.90;;;8.20;99.90;;;;;;6304360;22;20078;-93
2022/04/20 02:37:53;;;;;;;7.20;3.75;;;8.20;99.90;;;;;;6277890;22;19999;-93
2022/04/20 02:40:19;;;;;;;5.93;3.53;;;8.20;99.90;;;;;;6278790;22;20017;-93
2022/04/20 02:42:46;;;;;;;7.75;3.70;;;;;;;;;;6306300;22;20003;-94
2022/04/20 02:45:12;;;;;;;10.65;3.72;;;8.20;99.90;;;;;;6284715;22;20953;-93
2022/04/20 02:47:38;;;;;;;7.80;4.05;;;8.10;99.90;;;;;;6307618;22;20067;-91
2022/04/20 02:50:07;;;;;;;7.68;3.92;;;8.10;99.90;;;;;;6277020;22;20026;-94
2022/04/20 02:52:33;;;;;;;7.28;4.10;;;8.00;99.90;;;;;;6304818;22;20463;-94
2022/04/20 02:54:59;;;;;;;9.68;4.70;;;8.00;99.90;;;;;;6309179;22;20007;-93
2022/04/20 02:57:25;;;;;;;10.85;4.30;;;7.90;99.90;;;;;;6277334;22;20006;-95
2022/04/20 02:59:54;;;;;;;9.48;4.40;;;7.90;99.90;;;;;;6278634;22;20113;-93
2022/04/20 03:02:19;;;;;;;11.18;4.53;;;7.90;99.90;;;;;;6278535;22;20519;-94
2022/04/20 03:04:48;;;;;;;9.98;4.00;;;8.00;99.90;;;;;;6277617;22;20034;-94
2022/04/20 03:07:18;;;;;;;10.55;4.05;;;8.00;99.90;;;;;;6277719;22;20057;-95
2022/04/20 03:10:22;;;;;;;9.10;4.35;;;7.90;99.90;;;;;;6277669;22;20014;-93
2022/04/20 03:12:53;;;;;;;6.65;3.70;;;7.90;99.90;;;;;;6277694;22;20000;-94
2022/04/20 03:15:22;;;;;;;7.65;3.75;;;7.80;99.90;;;;;;6278001;22;20018;-92
2022/04/20 03:18:02;;;;;;;10.98;3.53;;;7.90;99.90;;;;;;6277215;22;19999;-92
2022/04/20 03:20:41;;;;;;;;;;;;;;;;;;;;;
2022/04/20 03:23:17;;;;;;;;;;;;;;;;;;;;;
2022/04/20 03:26:13;;;;;;;;;;;;;;;;;;;;;
2022/04/20 03:28:44;;;;;;;8.82;4.40;;;7.70;99.90;;;;;;6305555;22;20074;-96
2022/04/20 03:31:15;;;;;;;12.52;4.07;;;7.60;99.90;;;;;;6277656;22;20003;-94
2022/04/20 03:34:01;;;;;;;9.55;4.35;;;7.90;99.90;;;;;;6304728;22;20002;-94
2022/04/20 03:36:27;;;;;;;7.45;4.15;;;7.80;99.90;;;;;;6277578;22;20462;-95
2022/04/20 03:38:53;;;;;;;9.25;4.78;;;;;;;;;;6305800;22;19999;-93
2022/04/20 03:41:22;;;;;;;9.70;4.53;;;7.90;99.90;;;;;;6277244;22;20082;-95
2022/04/20 03:43:50;;;;;;;;;;;7.80;99.90;;;;;;6277374;22;20011;-94
2022/04/20 03:46:29;;;;;;;;;;;7.80;99.90;;;;;;6277259;22;19911;-92
2022/04/20 03:48:59;;;;;;;7.55;4.25;;;7.80;99.90;;;;;;6277815;22;19899;-93
2022/04/20 03:51:46;;;;;;;;;;;;;;;;;;;;;
2022/04/20 03:54:20;;;;;;;8.33;4.60;;;7.70;99.90;;;;;;6306122;22;20078;-93
2022/04/20 03:57:05;;;;;;;8.20;4.55;;;;;;;;;;6276806;22;20254;-93
2022/04/20 03:59:36;;;;;;;11.95;4.43;;;7.70;99.90;;;;;;6278638;22;20000;-92
2022/04/20 04:02:03;;;;;;;9.23;4.45;;;7.70;99.90;;;;;;6276388;22;20035;-93
2022/04/20 04:04:29;;;;;;;9.57;4.60;;;7.70;99.90;;;;;;6278660;22;20059;-91
2022/04/20 04:06:55;;;;;;;13.77;4.68;;;7.70;99.90;;;;;;6304770;22;20033;-91
2022/04/20 04:09:20;;;;;;;10.57;4.72;;;7.70;99.90;;;;;;6303890;22;19996;-92
2022/04/20 04:11:46;;;;;;;14.48;5.40;;;;;;;;;;6304136;22;19996;-92
2022/04/20 04:14:12;;;;;;;15.10;5.55;;;7.60;99.90;;;;;;6276700;22;20431;-92
2022/04/20 04:16:40;;;;;;;11.57;4.72;;;7.60;99.90;;;;;;6303662;22;20010;-88
2022/04/20 04:19:08;;;;;;;11.45;5.72;;;7.70;99.90;;;;;;6304633;22;20007;-90
2022/04/20 04:21:38;;;;;;;12.80;4.93;;;7.60;99.90;;;;;;6275903;22;20011;-91
2022/04/20 04:24:08;;;;;;;9.57;5.10;;;7.80;99.90;;;;;;6276719;22;20063;-92
2022/04/20 04:26:34;;;;;;;9.38;5.07;;;7.70;99.90;;;;;;6276591;22;20053;-92
2022/04/20 04:29:00;;;;;;;9.90;5.28;;;7.80;99.90;;;;;;6304188;22;20001;-92
2022/04/20 04:31:45;;;;;;;8.88;5.10;;;7.80;99.90;;;;;;6281172;22;20013;-91
2022/04/20 04:34:11;;;;;;;9.13;5.55;;;;;;;;;;6303669;22;20003;-92
2022/04/20 04:36:37;;;;;;;11.23;5.28;;;;;;;;;;6304124;22;20003;-91
2022/04/20 04:39:18;;;;;;;10.43;5.15;;;7.70;99.90;;;;;;6303664;22;20006;-94
2022/04/20 04:41:47;;;;;;;11.27;5.25;;;7.60;99.90;;;;;;6303746;22;20006;-91
2022/04/20 04:44:12;;;;;;;10.90;5.63;;;7.60;99.90;;;;;;6303487;22;20004;-92
2022/04/20 04:49:50;;;;;;;11.25;5.53;;;7.60;99.90;;;;;;6304915;22;20454;-92
2022/04/20 04:52:49;;;;;;;;;;;;;;;;;;;;;
2022/04/20 04:55:48;;;;;;;10.77;5.57;;;7.40;99.90;;;;;;6294160;22;20000;-91
2022/04/20 04:58:18;;;;;;;8.88;5.55;;;7.50;99.90;;;;;;6300128;22;20451;-92
2022/04/20 05:00:43;;;;;;;12.38;5.57;;;7.50;99.90;;;;;;6276368;22;20014;-91
2022/04/20 05:03:09;;;;;;;11.73;6.32;;;7.40;99.90;;;;;;6303391;22;20022;-92
2022/04/20 05:05:37;;;;;;;13.05;6.72;;;;;;;;;;6276011;22;20011;-91
2022/04/20 05:08:03;;;;;;;16.58;6.68;;;7.40;99.90;;;;;;6276573;22;20061;-93
2022/04/20 05:10:31;;;;;;;11.63;6.90;;;7.40;99.90;;;;;;6278472;22;20007;-92
2022/04/20 05:13:07;;;;;;;12.57;6.82;;;7.40;99.90;;;;;;6306879;22;20023;-93
2022/04/20 05:15:45;;;;;;;12.77;6.80;;;7.30;99.90;;;;;;6276855;22;20083;-92
2022/04/20 05:18:27;;;;;;;13.93;7.20;;;;;;;;;;6251322;22;20019;-90
2022/04/20 05:21:05;;;;;;;;;;;;;;;;;;;;;
2022/04/20 05:23:36;;;;;;;13.32;7.63;;;7.40;99.90;;;;;;6303476;22;20082;-90
2022/04/20 05:29:08;;;;;;;13.73;7.10;;;6.60;99.90;;;;;;6208885;23;20079;-95
2022/04/20 05:31:40;;;;;;;14.73;7.38;;;7.40;99.90;;;;;;6217328;23;20052;-94
2022/04/20 05:34:05;;;;;;;12.30;7.00;;;7.40;99.90;;;;;;6234486;22;20000;-93
2022/04/20 05:41:39;;;;;;;23.58;8.40;;;7.40;99.90;;;;;;6276776;22;20435;-94
2022/04/20 05:42:02;;;;;;;14.57;7.95;;;7.50;99.90;;;;;;6304607;22;20100;-86
2022/04/20 05:44:31;;;;;;;9.77;6.82;;;;;;;;;;6304065;22;20037;-91
2022/04/20 05:46:56;;;;;;;15.27;7.82;;;7.50;99.90;;;;;;6302786;22;20073;-90
2022/04/20 05:49:22;;;;;;;15.65;7.82;;;7.50;99.90;;;;;;6275205;22;20029;-90
2022/04/20 05:51:48;;;;;;;17.20;8.55;;;7.20;99.90;;;;;;6275614;22;20003;-91
2022/04/20 05:54:17;;;;;;;12.30;7.82;;;7.50;99.90;;;;;;6275847;22;20386;-92
2022/04/20 05:56:46;;;;;;;16.20;8.63;;;7.60;99.90;;;;;;6265833;22;20488;-90
2022/04/20 05:59:12;;;;;;;15.10;8.30;;;7.60;99.90;;;;;;6301465;22;20006;-89
2022/04/20 06:01:37;;;;;;;18.13;9.10;;;7.60;99.90;;;;;;6273934;22;20008;-90
2022/04/20 06:04:03;;;;;;;18.25;8.82;;;7.70;99.90;;;;;;6301295;22;20007;-89
2022/04/20 06:06:29;;;;;;;17.27;9.00;;;7.80;99.90;;;;;;6302596;22;20367;-89
2022/04/20 06:08:55;;;;;;;20.10;9.27;;;7.80;99.90;;;;;;6303626;22;20010;-90
2022/04/20 06:11:21;;;;;;;18.55;9.25;;;;;;;;;;6303716;22;20354;-89
2022/04/20 06:13:47;;;;;;;16.98;9.32;;;7.90;99.90;;;;;;6276507;22;20007;-90
2022/04/20 06:16:13;;;;;;;20.10;9.90;;;7.90;99.90;;;;;;6277108;22;20432;-91
2022/04/20 06:18:39;;;;;;;17.10;10.45;;;;;;;;;;6276846;22;20003;-91
2022/04/20 06:21:05;;;;;;;20.52;10.63;;;8.00;99.90;;;;;;6276720;22;20007;-90
2022/04/20 06:23:31;;;;;;;18.17;10.45;;;8.00;99.90;;;;;;6277673;22;20343;-89
2022/04/20 06:25:57;;;;;;;18.25;10.73;;;;;;;;;;6277678;22;20026;-90
2022/04/20 06:28:25;;;;;;;16.80;10.60;;;8.10;99.90;;;;;;6276844;22;20378;-90
2022/04/20 06:30:52;;;;;;;19.27;10.98;;;8.10;99.90;;;;;;6276410;22;20008;-90
2022/04/20 06:33:18;;;;;;;22.55;12.13;;;;;;;;;;6276337;22;20010;-91
2022/04/20 06:35:43;;;;;;;23.40;12.25;;;8.30;99.90;;;;;;6300128;22;19999;-90
2022/04/20 06:38:09;;;;;;;23.65;12.32;;;8.30;99.90;;;;;;6302940;22;20006;-88
2022/04/20 06:40:35;;;;;;;20.90;11.98;;;8.40;99.90;;;;;;6303270;22;20006;-89
2022/04/20 06:43:00;;;;;;;21.77;12.70;;;8.50;99.90;;;;;;6304291;22;20048;-88
2022/04/20 06:45:26;;;;;;;17.77;11.85;;;8.50;99.90;;;;;;6303314;22;20015;-87
2022/04/20 06:47:52;;;;;;;26.02;13.27;;;8.60;99.90;;;;;;6275415;22;20078;-87
2022/04/20 06:50:17;;;;;;;20.58;12.05;;;8.70;99.90;;;;;;6302938;22;20060;-90
2022/04/20 07:00:55;;;;;;;22.98;13.57;;;8.80;99.90;;;;;;6303552;22;20391;-92
2022/04/20 07:03:21;;;;;;;27.42;14.23;;;8.80;99.90;;;;;;6304116;22;20030;-90
2022/04/20 07:05:46;;;;;;;26.85;14.35;;;8.90;99.90;;;;;;6276522;22;20106;-89
2022/04/20 07:08:12;;;;;;;23.95;14.52;;;9.00;99.90;;;;;;6302906;22;19995;-90
2022/04/20 07:10:38;;;;;;;24.83;15.35;;;9.10;99.90;;;;;;6302734;22;20010;-93
2022/04/20 07:13:03;;;;;;;27.02;15.32;;;9.10;99.90;;;;;;6305250;22;19999;-87
2022/04/20 07:15:29;;;;;;;31.40;15.68;;;9.20;99.90;;;;;;6303290;22;20011;-89
2022/04/20 07:17:55;;;;;;;25.75;16.13;;;9.40;99.90;;;;;;6275879;22;20605;-91
2022/04/20 07:20:21;;;;;;;23.38;15.23;;;9.50;99.90;;;;;;6301721;22;20003;-88
2022/04/20 07:22:51;;;;;;;25.83;16.00;;;9.60;99.90;;;;;;6274926;22;20011;-87
2022/04/20 07:25:17;;;;;;;27.92;15.75;;;9.60;99.90;;;;;;6275627;22;20011;-93
2022/04/20 07:27:46;;;;;;;28.60;16.40;;;9.60;99.90;;;;;;6303160;22;20096;-89
2022/04/20 07:30:12;;;;;;;23.30;15.80;;;9.70;99.90;;;;;;6276019;22;20003;-89
2022/04/20 07:32:39;;;;;;;30.70;16.42;;;;;;;;;;6275794;22;20009;-84
2022/04/20 07:35:05;;;;;;;28.63;17.10;;;9.90;99.90;;;;;;6303799;22;20003;-86
2022/04/20 07:37:31;;;;;;;21.73;15.93;;;10.00;99.90;;;;;;6274752;22;20053;-85
2022/04/20 07:39:57;;;;;;;24.75;15.82;;;10.10;99.90;;;;;;6302521;22;20460;-85
2022/04/20 07:42:23;;;;;;;26.25;17.02;;;10.20;99.90;;;;;;6302880;22;19995;-85
2022/04/20 07:44:49;;;;;;;27.25;16.45;;;10.30;99.90;;;;;;6274841;22;20012;-86
2022/04/20 07:47:15;;;;;;;28.33;17.30;;;10.30;99.90;;;;;;6275025;22;20007;-85
2022/04/20 07:52:25;;;;;;;23.70;15.35;;;10.60;99.90;;;;;;6302431;22;20009;-85
2022/04/20 07:54:51;;;;;;;27.40;16.40;;;10.70;99.90;;;;;;6302864;22;20074;-84
2022/04/20 07:57:16;;;;;;;30.33;16.70;;;10.70;99.90;;;;;;6302662;22;20378;-85
2022/04/20 07:59:43;;;;;;;23.63;15.63;;;;;;;;;;6275180;22;20083;-84
2022/04/20 08:02:08;;;;;;;31.55;16.10;;;10.80;99.90;;;;;;6302588;22;19999;-85
2022/04/20 08:04:34;;;;;;;25.98;15.40;;;11.00;99.90;;;;;;6276064;22;20064;-90
2022/04/20 08:07:00;;;;;;;25.38;14.13;;;11.00;99.90;;;;;;6275173;22;20003;-85
2022/04/20 08:09:26;;;;;;;28.45;13.90;;;11.10;99.90;;;;;;6302294;22;20400;-85
2022/04/20 08:11:52;;;;;;;21.15;13.93;;;11.20;99.90;;;;;;6275167;22;20003;-85
2022/04/20 08:14:18;;;;;;;21.40;13.30;;;11.30;99.90;;;;;;6302447;22;20517;-85
2022/04/20 08:16:45;;;;;;;23.65;13.27;;;11.30;99.90;;;;;;6303068;22;20371;-93
2022/04/20 08:19:11;;;;;;;29.15;13.45;;;11.40;99.90;;;;;;6303480;22;20348;-92
2022/04/20 08:21:37;;;;;;;24.52;12.85;;;11.40;99.90;;;;;;6304768;22;19995;-90
2022/04/20 08:24:03;;;;;;;21.40;13.00;;;11.40;99.90;;;;;;6303334;22;20006;-92
2022/04/20 08:26:29;;;;;;;21.13;11.70;;;11.50;99.90;;;;;;6302998;22;20078;-90
2022/04/20 08:28:55;;;;;;;24.55;12.23;;;11.60;99.90;;;;;;6275240;22;20034;-90
2022/04/20 08:31:21;;;;;;;20.60;11.63;;;11.50;99.90;;;;;;6302200;22;20101;-88
2022/04/20 08:33:46;;;;;;;17.52;10.77;;;11.60;99.90;;;;;;6303708;22;20000;-87
2022/04/20 08:36:12;;;;;;;20.10;10.82;;;11.70;99.90;;;;;;6292994;22;20006;-84
2022/04/20 08:38:39;;;;;;;21.45;11.10;;;11.70;99.90;;;;;;6328241;22;20002;-85
2022/04/20 08:41:08;;;;;;;21.23;10.63;;;11.80;99.90;;;;;;6318726;22;20011;-91
2022/04/20 08:43:35;;;;;;;18.55;10.05;;;11.80;99.90;;;;;;6278994;22;20010;-87
2022/04/20 08:46:02;;;;;;;18.95;10.38;;;11.90;99.90;;;;;;6302725;22;20344;-89
2022/04/20 08:48:29;;;;;;;17.33;10.10;;;11.90;99.90;;;;;;6302119;22;20025;-85
2022/04/20 08:50:55;;;;;;;18.48;10.27;;;12.00;99.90;;;;;;6275079;22;20003;-88
2022/04/20 08:53:21;;;;;;;15.20;9.98;;;12.10;99.90;;;;;;6274839;22;20053;-89
2022/04/20 08:55:47;;;;;;;26.80;10.05;;;12.10;99.90;;;;;;6274790;22;20069;-89
2022/04/20 08:58:13;;;;;;;16.33;9.48;;;12.10;99.90;;;;;;6301900;22;20023;-89
2022/04/20 09:00:39;;;;;;;25.48;10.38;;;12.30;99.90;;;;;;6274735;22;20420;-90
2022/04/20 09:03:05;;;;;;;18.42;9.90;;;12.40;99.90;;;;;;6303114;22;19999;-88
2022/04/20 09:05:33;;;;;;;19.65;11.00;;;12.30;99.90;;;;;;6274508;22;20099;-89
2022/04/20 09:08:11;;;;;;;20.73;10.55;;;12.20;99.90;;;;;;6302013;22;20014;-89
2022/04/20 09:10:37;;;;;;;19.35;9.85;;;12.20;99.90;;;;;;6303056;22;20003;-88
2022/04/20 09:13:08;;;;;;;16.67;9.85;;;12.30;99.90;;;;;;6302059;22;19995;-88
2022/04/20 09:15:35;;;;;;;16.75;9.25;;;12.40;99.90;;;;;;6302854;22;20486;-87
2022/04/20 09:18:03;;;;;;;15.57;9.18;;;;;;;;;;6302182;22;20423;-88
2022/04/20 09:20:31;;;;;;;22.13;10.57;;;12.50;99.90;;;;;;6302043;22;20014;-91
2022/04/20 09:23:01;;;;;;;;;;;12.50;99.90;;;;;;6302580;22;19999;-91
2022/04/20 09:25:32;;;;;;;17.75;9.43;;;12.70;99.90;;;;;;6274598;22;19906;-87
2022/04/20 09:27:58;;;;;;;18.92;9.50;;;12.80;99.90;;;;;;6274411;22;20086;-90
2022/04/20 09:30:23;;;;;;;23.38;10.18;;;12.80;99.90;;;;;;6274469;22;20467;-89
2022/04/20 09:32:49;;;;;;;23.00;10.40;;;12.90;99.90;;;;;;6275118;22;20003;-90
2022/04/20 09:35:20;;;;;;;14.80;9.93;;;13.00;99.90;;;;;;6302750;22;20498;-88
2022/04/20 09:38:03;;;;;;;17.85;9.75;;;13.00;99.90;;;;;;6302522;22;20506;-91
2022/04/20 09:40:34;;;;;;;23.13;9.63;;;12.90;99.90;;;;;;6301726;22;20070;-88
2022/04/20 09:43:02;;;;;;;17.58;9.98;;;13.10;99.90;;;;;;6303641;22;20003;-93
2022/04/20 09:45:28;;;;;;;21.10;10.63;;;13.10;99.90;;;;;;6277514;22;20440;-89
2022/04/20 09:50:39;;;;;;;18.48;10.82;;;13.20;99.90;;;;;;6303459;22;20048;-88
2022/04/20 09:53:10;;;;;;;17.17;11.20;;;13.20;99.90;;;;;;6305453;22;19995;-89
2022/04/20 09:55:37;;;;;;;22.05;11.90;;;13.20;99.90;;;;;;6309222;22;20003;-92
2022/04/20 09:58:20;;;;;;;19.08;12.60;;;13.50;99.90;;;;;;6276561;22;19999;-92
2022/04/20 10:00:47;;;;;;;22.00;13.70;;;13.40;99.90;;;;;;6303466;22;20006;-89
2022/04/20 10:03:26;;;;;;;24.27;14.63;;;13.60;99.90;;;;;;6304188;22;19995;-91
2022/04/20 10:05:52;;;;;;;26.15;13.93;;;13.60;99.90;;;;;;6305873;22;20051;-88
2022/04/20 10:08:19;;;;;;;25.00;15.18;;;13.80;99.90;;;;;;6276338;22;20030;-88
2022/04/20 10:10:46;;;;;;;27.42;15.80;;;13.90;99.90;;;;;;6304240;22;20038;-89
2022/04/20 10:13:13;;;;;;;23.67;14.85;;;13.90;99.90;;;;;;6277369;22;20064;-93
2022/04/20 10:18:26;;;;;;;25.38;15.60;;;13.90;99.90;;;;;;6303038;22;20010;-91
2022/04/20 10:20:58;;;;;;;28.73;15.98;;;14.00;99.90;;;;;;6276808;22;20356;-93
2022/04/20 10:23:24;;;;;;;24.70;16.15;;;14.20;99.90;;;;;;6304305;22;19996;-92
2022/04/20 10:25:53;;;;;;;24.40;16.52;;;14.20;99.90;;;;;;6301932;22;20062;-89
2022/04/20 10:28:31;;;;;;;;;;;14.30;99.90;;;;;;6277003;22;20063;-89
2022/04/20 10:31:09;;;;;;;31.55;17.77;;;14.30;99.90;;;;;;6277296;22;19899;-91
2022/04/20 10:33:38;;;;;;;28.95;17.73;;;14.10;99.90;;;;;;6277608;22;20090;-91
2022/04/20 10:36:12;;;;;;;29.60;17.88;;;14.00;99.90;;;;;;6303985;22;20003;-89
2022/04/20 10:38:39;;;;;;;26.75;17.83;;;14.20;99.90;;;;;;6277387;22;20275;-88
2022/04/20 10:41:13;;;;;;;30.20;18.60;;;14.40;99.90;;;;;;6278065;22;20317;-89
2022/04/20 10:43:42;;;;;;;34.15;18.60;;;14.70;99.90;;;;;;6278067;22;20010;-89
2022/04/20 10:46:15;;;;;;;30.55;18.80;;;15.10;99.90;;;;;;6278409;22;20448;-89
2022/04/20 10:48:42;;;;;;;30.05;19.02;;;14.80;99.90;;;;;;6277007;22;19995;-89
2022/04/20 10:51:22;;;;;;;27.05;18.73;;;14.90;99.90;;;;;;6277509;22;20007;-89
2022/04/20 10:53:49;;;;;;;29.38;18.73;;;14.90;99.90;;;;;;6276332;22;20452;-90
2022/04/20 10:56:17;;;;;;;32.63;18.33;;;14.70;99.90;;;;;;6303948;22;20005;-90
2022/04/20 10:59:08;;;;;;;30.60;17.92;;;14.80;99.90;;;;;;6304109;22;20039;-89
2022/04/20 11:01:58;;;;;;;28.08;17.85;;;14.90;99.90;;;;;;6276472;22;20013;-89
2022/04/20 11:04:46;;;;;;;27.70;17.73;;;14.80;99.90;;;;;;6303855;22;20007;-91
2022/04/20 11:07:15;;;;;;;29.98;18.77;;;14.90;99.90;;;;;;6304100;22;20451;-91
2022/04/20 11:09:48;;;;;;;32.65;19.30;;;15.00;99.90;;;;;;6277544;22;20009;-90
2022/04/20 11:21:06;;;;;;;34.05;19.75;;;15.10;99.90;;;;;;6303869;22;20363;-91
2022/04/20 11:23:54;;;;;;;38.45;20.83;;;15.10;99.90;;;;;;6276475;22;20370;-90
2022/04/20 11:26:21;;;;;;;33.20;20.70;;;15.20;99.90;;;;;;6303335;22;20439;-90
2022/04/20 11:28:50;;;;;;;34.53;20.80;;;15.20;99.90;;;;;;6276708;22;20377;-89
2022/04/20 11:31:17;;;;;;;38.60;20.90;;;15.40;99.90;;;;;;6303834;22;20000;-91
2022/04/20 11:33:43;;;;;;;35.78;22.15;;;15.30;99.90;;;;;;6276551;22;20004;-88
2022/04/20 11:36:14;;;;;;;41.95;23.48;;;15.20;99.90;;;;;;6304518;22;20041;-90
2022/04/20 11:38:41;;;;;;;37.40;22.08;;;15.20;99.90;;;;;;6304297;22;20003;-91
2022/04/20 11:41:09;;;;;;;41.70;23.53;;;15.20;99.90;;;;;;6303238;22;19996;-90
2022/04/20 11:43:36;;;;;;;38.93;23.47;;;15.40;99.90;;;;;;6303662;22;19999;-92
2022/04/20 11:46:02;;;;;;;40.85;23.00;;;15.20;99.90;;;;;;6303361;22;20256;-90
2022/04/20 11:48:29;;;;;;;34.60;21.80;;;15.40;99.90;;;;;;6275056;22;20003;-90
2022/04/20 11:51:00;;;;;;;38.17;22.83;;;15.60;99.90;;;;;;6272754;22;20003;-91
2022/04/20 11:53:37;;;;;;;34.88;22.52;;;15.60;99.90;;;;;;6311255;22;20436;-88
2022/04/20 11:56:04;;;;;;;39.80;24.13;;;15.50;99.90;;;;;;6303134;22;20386;-86
2022/04/20 11:58:33;;;;;;;37.45;24.42;;;15.40;99.90;;;;;;6303375;22;20222;-89
2022/04/20 12:01:07;;;;;;;44.45;24.02;;;15.50;99.90;;;;;;6275767;22;20061;-93
2022/04/20 12:03:39;;;;;;;42.58;24.33;;;15.60;99.90;;;;;;6276623;22;19999;-91
2022/04/20 12:06:11;;;;;;;40.95;25.00;;;15.60;99.90;;;;;;6303832;22;20014;-93
2022/04/20 12:08:41;;;;;;;37.85;24.35;;;15.70;99.90;;;;;;6305038;22;20026;-91
2022/04/20 12:11:10;;;;;;;38.13;24.25;;;15.80;99.90;;;;;;6305423;22;20432;-92
2022/04/20 12:13:42;;;;;;;43.08;25.67;;;15.70;99.90;;;;;;6278766;22;20010;-95
2022/04/20 12:16:10;;;;;;;41.03;25.85;;;15.60;99.90;;;;;;6306128;22;20018;-95
2022/04/20 12:18:41;;;;;;;34.55;24.13;;;15.70;99.90;;;;;;6308247;22;20011;-89
2022/04/20 12:21:43;;;;;;;39.47;22.95;;;15.90;99.90;;;;;;6303007;22;19995;-89
2022/04/20 12:24:37;;;;;;;36.40;24.60;;;16.00;99.90;;;;;;6303087;22;20003;-93
2022/04/20 12:27:15;;;;;;;38.65;25.17;;;16.10;99.90;;;;;;6303047;22;20061;-90
2022/04/20 12:29:41;;;;;;;35.08;24.05;;;16.00;99.90;;;;;;6276166;22;20066;-92
2022/04/20 12:32:07;;;;;;;35.70;23.40;;;16.00;99.90;;;;;;6303349;22;20003;-89
2022/04/20 12:34:33;;;;;;;35.35;23.95;;;16.20;99.90;;;;;;6275178;22;20003;-90
2022/04/20 12:37:03;;;;;;;36.13;22.75;;;16.00;99.90;;;;;;6275371;22;20007;-90
2022/04/20 12:39:36;;;;;;;38.90;24.63;;;16.00;99.90;;;;;;6275293;22;20042;-90
2022/04/20 12:42:10;;;;;;;36.33;23.95;;;16.10;99.90;;;;;;6302379;22;19999;-90
2022/04/20 12:44:47;;;;;;;37.13;23.83;;;16.20;99.90;;;;;;6275155;22;20007;-91
2022/04/20 12:47:14;;;;;;;35.03;24.05;;;16.10;99.90;;;;;;6275931;22;20034;-90
2022/04/20 12:49:42;;;;;;;37.97;24.77;;;16.30;99.90;;;;;;6275108;22;19999;-89
2022/04/20 12:52:12;;;;;;;34.88;24.23;;;16.40;99.90;;;;;;6274762;22;20007;-89
2022/04/20 12:54:38;;;;;;;41.60;23.52;;;16.40;99.90;;;;;;6275823;22;20089;-91
2022/04/20 13:03:04;;;;;;;34.55;23.63;;;16.70;99.90;;;;;;6302441;22;20139;-89
2022/04/20 13:05:32;;;;;;;37.22;23.35;;;16.80;99.90;;;;;;6275586;22;20351;-90
2022/04/20 13:07:58;;;;;;;34.25;23.02;;;16.60;99.90;;;;;;6302114;22;20004;-90
2022/04/20 13:10:24;;;;;;;33.83;23.10;;;16.60;99.90;;;;;;6302370;22;20009;-90
2022/04/20 13:12:51;;;;;;;32.83;23.38;;;16.80;99.90;;;;;;6274641;22;20007;-91
2022/04/20 13:15:18;;;;;;;40.70;24.27;;;16.60;99.90;;;;;;6302766;22;20023;-89
2022/04/20 13:17:44;;;;;;;36.10;22.85;;;16.70;99.90;;;;;;6303426;22;19999;-91
2022/04/20 13:20:13;;;;;;;33.15;22.77;;;16.70;99.90;;;;;;6275482;22;20007;-90
2022/04/20 13:22:39;;;;;;;37.50;23.20;;;16.80;99.90;;;;;;6302590;22;20454;-91
2022/04/20 13:27:56;;;;;;;29.05;21.75;;;16.90;99.90;;;;;;6302489;22;20005;-91
2022/04/20 13:30:27;;;;;;;33.03;20.55;;;16.90;99.90;;;;;;6275134;22;20042;-92
2022/04/20 13:32:56;;;;;;;36.92;22.00;;;17.10;99.90;;;;;;6302989;22;19996;-91
2022/04/20 13:35:23;;;;;;;31.92;21.58;;;17.10;99.90;;;;;;6275290;22;20347;-91
2022/04/20 13:37:50;;;;;;;29.40;22.50;;;16.90;99.90;;;;;;6275095;22;20470;-93
2022/04/20 13:40:20;;;;;;;30.33;21.05;;;16.90;99.90;;;;;;6303408;22;20456;-91
2022/04/20 13:42:46;;;;;;;30.10;20.63;;;17.00;99.90;;;;;;6276023;22;20060;-91
2022/04/20 13:45:14;;;;;;;30.10;20.13;;;17.10;99.90;;;;;;6303590;22;20004;-91
2022/04/20 13:47:40;;;;;;;;;;;17.30;99.90;;;;;;6275474;22;20128;-92